sensor_id;sensor_type;location;lat;lon;timestamp;temperature;humidity
44855;DHT22;30591;48.228;16.398;2022-11-18T00:00:04;5.90;99.90
44855;DHT22;30591;48.228;16.398;2022-11-18T00:02:36;6.00;99.90
44855;DHT22;30591;48.228;16.398;2022-11-18T00:05:05;5.90;99.90
44855;DHT22;30591;48.228;16.398;2022-11-18T00:07:32;5.90;99.90
44855;DHT22;30591;48.228;16.398;2022-11-18T00:10:11;5.90;99.90
44855;DHT22;30591;48.228;16.398;2022-11-18T00:12:38;5.80;99.90
44855;DHT22;30591;48.228;16.398;2022-11-18T00:15:24;5.90;99.90
44855;DHT22;30591;48.228;16.398;2022-11-18T00:18:22;5.90;99.90
44855;DHT22;30591;48.228;16.398;2022-11-18T00:20:50;5.90;99.90
44855;DHT22;30591;48.228;16.398;2022-11-18T00:23:17;6.00;99.90
44855;DHT22;30591;48.228;16.398;2022-11-18T00:25:46;6.00;99.90
44855;DHT22;30591;48.228;16.398;2022-11-18T00:28:14;5.90;99.90
44855;DHT22;30591;48.228;16.398;2022-11-18T00:30:50;5.90;99.90
44855;DHT22;30591;48.228;16.398;2022-11-18T00:33:17;5.90;99.90
44855;DHT22;30591;48.228;16.398;2022-11-18T00:35:53;5.80;99.90
44855;DHT22;30591;48.228;16.398;2022-11-18T00:38:26;6.00;99.90
44855;DHT22;30591;48.228;16.398;2022-11-18T00:41:10;6.00;99.90
44855;DHT22;30591;48.228;16.398;2022-11-18T00:43:41;6.00;99.90
44855;DHT22;30591;48.228;16.398;2022-11-18T00:46:11;6.00;99.90
44855;DHT22;30591;48.228;16.398;2022-11-18T00:48:43;5.90;99.90
44855;DHT22;30591;48.228;16.398;2022-11-18T00:51:22;6.00;99.90
44855;DHT22;30591;48.228;16.398;2022-11-18T00:53:50;5.90;99.90
44855;DHT22;30591;48.228;16.398;2022-11-18T00:56:21;5.90;99.90
44855;DHT22;30591;48.228;16.398;2022-11-18T00:58:54;5.80;99.90
44855;DHT22;30591;48.228;16.398;2022-11-18T01:01:37;5.80;99.90
44855;DHT22;30591;48.228;16.398;2022-11-18T01:04:04;5.90;99.90
44855;DHT22;30591;48.228;16.398;2022-11-18T01:06:31;5.90;99.90
44855;DHT22;30591;48.228;16.398;2022-11-18T01:09:04;5.90;99.90
44855;DHT22;30591;48.228;16.398;2022-11-18T01:11:41;5.80;99.90
44855;DHT22;30591;48.228;16.398;2022-11-18T01:14:27;5.90;99.90
44855;DHT22;30591;48.228;16.398;2022-11-18T01:17:06;5.80;99.90
44855;DHT22;30591;48.228;16.398;2022-11-18T01:19:34;5.90;99.90
44855;DHT22;30591;48.228;16.398;2022-11-18T01:22:02;5.90;99.90
44855;DHT22;30591;48.228;16.398;2022-11-18T01:24:34;5.80;99.90
44855;DHT22;30591;48.228;16.398;2022-11-18T01:27:02;5.80;99.90
44855;DHT22;30591;48.228;16.398;2022-11-18T01:29:31;5.80;99.90
44855;DHT22;30591;48.228;16.398;2022-11-18T01:32:04;5.70;99.90
44855;DHT22;30591;48.228;16.398;2022-11-18T01:34:52;5.70;99.90
44855;DHT22;30591;48.228;16.398;2022-11-18T01:37:22;5.70;99.90
44855;DHT22;30591;48.228;16.398;2022-11-18T01:39:49;5.70;99.90
44855;DHT22;30591;48.228;16.398;2022-11-18T01:42:25;5.70;99.90
44855;DHT22;30591;48.228;16.398;2022-11-18T01:45:00;5.70;99.90
44855;DHT22;30591;48.228;16.398;2022-11-18T01:47:42;5.60;99.90
44855;DHT22;30591;48.228;16.398;2022-11-18T01:50:12;5.60;99.90
44855;DHT22;30591;48.228;16.398;2022-11-18T01:52:48;5.60;99.90
44855;DHT22;30591;48.228;16.398;2022-11-18T01:55:25;5.50;99.90
44855;DHT22;30591;48.228;16.398;2022-11-18T01:58:02;5.50;99.90
44855;DHT22;30591;48.228;16.398;2022-11-18T02:00:32;5.60;99.90
44855;DHT22;30591;48.228;16.398;2022-11-18T02:03:02;5.50;99.90
44855;DHT22;30591;48.228;16.398;2022-11-18T02:05:33;5.60;99.90
44855;DHT22;30591;48.228;16.398;2022-11-18T02:08:03;5.50;99.90
44855;DHT22;30591;48.228;16.398;2022-11-18T02:10:33;5.50;99.90
44855;DHT22;30591;48.228;16.398;2022-11-18T02:13:05;5.50;99.90
44855;DHT22;30591;48.228;16.398;2022-11-18T02:16:03;5.40;99.90
44855;DHT22;30591;48.228;16.398;2022-11-18T02:18:40;5.50;99.90
44855;DHT22;30591;48.228;16.398;2022-11-18T02:21:36;5.40;99.90
44855;DHT22;30591;48.228;16.398;2022-11-18T02:24:39;5.40;99.90
44855;DHT22;30591;48.228;16.398;2022-11-18T02:30:05;5.40;99.90
44855;DHT22;30591;48.228;16.398;2022-11-18T02:35:41;5.40;99.90
44855;DHT22;30591;48.228;16.398;2022-11-18T02:38:30;5.40;99.90
44855;DHT22;30591;48.228;16.398;2022-11-18T02:41:15;5.40;99.90
44855;DHT22;30591;48.228;16.398;2022-11-18T02:44:00;5.40;99.90
44855;DHT22;30591;48.228;16.398;2022-11-18T02:46:34;5.40;99.90
44855;DHT22;30591;48.228;16.398;2022-11-18T02:49:08;5.40;99.90
44855;DHT22;30591;48.228;16.398;2022-11-18T02:51:38;5.40;99.90
44855;DHT22;30591;48.228;16.398;2022-11-18T02:54:08;5.50;99.90
44855;DHT22;30591;48.228;16.398;2022-11-18T02:56:41;5.40;99.90
44855;DHT22;30591;48.228;16.398;2022-11-18T02:59:10;5.40;99.90
44855;DHT22;30591;48.228;16.398;2022-11-18T03:01:39;5.30;99.90
44855;DHT22;30591;48.228;16.398;2022-11-18T03:04:06;5.40;99.90
44855;DHT22;30591;48.228;16.398;2022-11-18T03:07:05;5.30;99.90
44855;DHT22;30591;48.228;16.398;2022-11-18T03:09:42;5.30;99.90
44855;DHT22;30591;48.228;16.398;2022-11-18T03:12:31;5.30;99.90
44855;DHT22;30591;48.228;16.398;2022-11-18T03:15:18;5.30;99.90
44855;DHT22;30591;48.228;16.398;2022-11-18T03:17:54;5.30;99.90
44855;DHT22;30591;48.228;16.398;2022-11-18T03:20:35;5.30;99.90
44855;DHT22;30591;48.228;16.398;2022-11-18T03:23:13;5.30;99.90
44855;DHT22;30591;48.228;16.398;2022-11-18T03:28:43;5.30;99.90
44855;DHT22;30591;48.228;16.398;2022-11-18T03:36:51;5.30;99.90
44855;DHT22;30591;48.228;16.398;2022-11-18T03:39:29;5.40;99.90
44855;DHT22;30591;48.228;16.398;2022-11-18T03:42:37;5.40;99.90
44855;DHT22;30591;48.228;16.398;2022-11-18T03:45:36;5.40;99.90
44855;DHT22;30591;48.228;16.398;2022-11-18T03:48:16;5.40;99.90
44855;DHT22;30591;48.228;16.398;2022-11-18T03:51:01;5.40;99.90
44855;DHT22;30591;48.228;16.398;2022-11-18T03:53:38;5.40;99.90
44855;DHT22;30591;48.228;16.398;2022-11-18T03:56:17;5.40;99.90
44855;DHT22;30591;48.228;16.398;2022-11-18T03:59:13;5.40;99.90
44855;DHT22;30591;48.228;16.398;2022-11-18T04:02:01;5.40;99.90
44855;DHT22;30591;48.228;16.398;2022-11-18T04:04:29;5.40;99.90
44855;DHT22;30591;48.228;16.398;2022-11-18T04:09:53;5.30;99.90
44855;DHT22;30591;48.228;16.398;2022-11-18T04:12:23;5.30;99.90
44855;DHT22;30591;48.228;16.398;2022-11-18T04:14:52;5.40;99.90
44855;DHT22;30591;48.228;16.398;2022-11-18T04:17:25;5.30;99.90
44855;DHT22;30591;48.228;16.398;2022-11-18T04:19:59;5.40;99.90
44855;DHT22;30591;48.228;16.398;2022-11-18T04:22:26;5.30;99.90
44855;DHT22;30591;48.228;16.398;2022-11-18T04:24:59;5.40;99.90
44855;DHT22;30591;48.228;16.398;2022-11-18T04:27:26;5.40;99.90
44855;DHT22;30591;48.228;16.398;2022-11-18T04:30:00;5.40;99.90
44855;DHT22;30591;48.228;16.398;2022-11-18T04:32:27;5.50;99.90
44855;DHT22;30591;48.228;16.398;2022-11-18T04:35:27;5.50;99.90
44855;DHT22;30591;48.228;16.398;2022-11-18T04:37:55;5.50;99.90
44855;DHT22;30591;48.228;16.398;2022-11-18T04:40:22;5.50;99.90
44855;DHT22;30591;48.228;16.398;2022-11-18T04:42:50;5.50;99.90
44855;DHT22;30591;48.228;16.398;2022-11-18T04:45:19;5.40;99.90
44855;DHT22;30591;48.228;16.398;2022-11-18T04:47:46;5.50;99.90
44855;DHT22;30591;48.228;16.398;2022-11-18T04:50:15;5.50;99.90
44855;DHT22;30591;48.228;16.398;2022-11-18T04:52:42;5.50;99.90
44855;DHT22;30591;48.228;16.398;2022-11-18T04:55:35;5.50;99.90
44855;DHT22;30591;48.228;16.398;2022-11-18T04:58:26;5.40;99.90
44855;DHT22;30591;48.228;16.398;2022-11-18T05:00:53;5.40;99.90
44855;DHT22;30591;48.228;16.398;2022-11-18T05:03:21;5.30;99.90
44855;DHT22;30591;48.228;16.398;2022-11-18T05:05:52;5.30;99.90
44855;DHT22;30591;48.228;16.398;2022-11-18T05:08:23;5.40;99.90
44855;DHT22;30591;48.228;16.398;2022-11-18T05:10:50;5.30;99.90
44855;DHT22;30591;48.228;16.398;2022-11-18T05:13:40;5.30;99.90
44855;DHT22;30591;48.228;16.398;2022-11-18T05:16:08;5.30;99.90
44855;DHT22;30591;48.228;16.398;2022-11-18T05:18:54;5.30;99.90
44855;DHT22;30591;48.228;16.398;2022-11-18T05:21:22;5.30;99.90
44855;DHT22;30591;48.228;16.398;2022-11-18T05:23:53;5.30;99.90
44855;DHT22;30591;48.228;16.398;2022-11-18T05:26:29;5.30;99.90
44855;DHT22;30591;48.228;16.398;2022-11-18T05:28:58;5.30;99.90
44855;DHT22;30591;48.228;16.398;2022-11-18T05:31:25;5.30;99.90
44855;DHT22;30591;48.228;16.398;2022-11-18T05:33:52;5.30;99.90
44855;DHT22;30591;48.228;16.398;2022-11-18T05:36:21;5.30;99.90
44855;DHT22;30591;48.228;16.398;2022-11-18T05:38:52;5.30;99.90
44855;DHT22;30591;48.228;16.398;2022-11-18T05:41:19;5.30;99.90
44855;DHT22;30591;48.228;16.398;2022-11-18T05:44:14;5.30;99.90
44855;DHT22;30591;48.228;16.398;2022-11-18T05:46:42;5.30;99.90
44855;DHT22;30591;48.228;16.398;2022-11-18T05:49:09;5.30;99.90
44855;DHT22;30591;48.228;16.398;2022-11-18T05:51:39;5.30;99.90
44855;DHT22;30591;48.228;16.398;2022-11-18T05:54:16;5.40;99.90
44855;DHT22;30591;48.228;16.398;2022-11-18T05:56:45;5.30;99.90
44855;DHT22;30591;48.228;16.398;2022-11-18T05:59:14;5.30;99.90
44855;DHT22;30591;48.228;16.398;2022-11-18T06:02:02;5.30;99.90
44855;DHT22;30591;48.228;16.398;2022-11-18T06:04:49;5.30;99.90
44855;DHT22;30591;48.228;16.398;2022-11-18T06:07:26;5.30;99.90
44855;DHT22;30591;48.228;16.398;2022-11-18T06:09:58;5.30;99.90
44855;DHT22;30591;48.228;16.398;2022-11-18T06:12:36;5.30;99.90
44855;DHT22;30591;48.228;16.398;2022-11-18T06:15:27;5.40;99.90
44855;DHT22;30591;48.228;16.398;2022-11-18T06:18:03;5.40;99.90
44855;DHT22;30591;48.228;16.398;2022-11-18T06:20:33;5.40;99.90
44855;DHT22;30591;48.228;16.398;2022-11-18T06:23:03;5.40;99.90
44855;DHT22;30591;48.228;16.398;2022-11-18T06:25:31;5.40;99.90
44855;DHT22;30591;48.228;16.398;2022-11-18T06:28:00;5.40;99.90
44855;DHT22;30591;48.228;16.398;2022-11-18T06:30:29;5.40;99.90
44855;DHT22;30591;48.228;16.398;2022-11-18T06:33:02;5.40;99.90
44855;DHT22;30591;48.228;16.398;2022-11-18T06:35:32;5.30;99.90
44855;DHT22;30591;48.228;16.398;2022-11-18T06:37:59;5.40;99.90
44855;DHT22;30591;48.228;16.398;2022-11-18T06:40:26;5.40;99.90
44855;DHT22;30591;48.228;16.398;2022-11-18T06:43:06;5.50;99.90
44855;DHT22;30591;48.228;16.398;2022-11-18T06:45:59;5.40;99.90
44855;DHT22;30591;48.228;16.398;2022-11-18T06:48:45;5.40;99.90
44855;DHT22;30591;48.228;16.398;2022-11-18T06:51:13;5.40;99.90
44855;DHT22;30591;48.228;16.398;2022-11-18T06:53:41;5.40;99.90
44855;DHT22;30591;48.228;16.398;2022-11-18T06:56:12;5.50;99.90
44855;DHT22;30591;48.228;16.398;2022-11-18T06:58:58;5.50;99.90
44855;DHT22;30591;48.228;16.398;2022-11-18T07:01:28;5.50;99.90
44855;DHT22;30591;48.228;16.398;2022-11-18T07:03:58;5.60;99.90
44855;DHT22;30591;48.228;16.398;2022-11-18T07:06:31;5.60;99.90
44855;DHT22;30591;48.228;16.398;2022-11-18T07:09:02;5.60;99.90
44855;DHT22;30591;48.228;16.398;2022-11-18T07:11:34;5.60;99.90
44855;DHT22;30591;48.228;16.398;2022-11-18T07:14:05;5.30;99.90
44855;DHT22;30591;48.228;16.398;2022-11-18T07:16:34;5.40;99.90
44855;DHT22;30591;48.228;16.398;2022-11-18T07:19:08;5.40;99.90
44855;DHT22;30591;48.228;16.398;2022-11-18T07:21:37;5.40;99.90
44855;DHT22;30591;48.228;16.398;2022-11-18T07:24:06;5.40;99.90
44855;DHT22;30591;48.228;16.398;2022-11-18T07:26:35;5.50;99.90
44855;DHT22;30591;48.228;16.398;2022-11-18T07:29:04;5.50;99.90
44855;DHT22;30591;48.228;16.398;2022-11-18T07:31:31;5.60;99.90
44855;DHT22;30591;48.228;16.398;2022-11-18T07:34:00;5.50;99.90
44855;DHT22;30591;48.228;16.398;2022-11-18T07:36:38;5.50;99.90
44855;DHT22;30591;48.228;16.398;2022-11-18T07:39:08;5.50;99.90
44855;DHT22;30591;48.228;16.398;2022-11-18T07:41:41;5.50;99.90
44855;DHT22;30591;48.228;16.398;2022-11-18T07:44:11;5.50;99.90
44855;DHT22;30591;48.228;16.398;2022-11-18T07:46:39;5.50;99.90
44855;DHT22;30591;48.228;16.398;2022-11-18T07:49:12;5.60;99.90
44855;DHT22;30591;48.228;16.398;2022-11-18T07:51:39;5.60;99.90
44855;DHT22;30591;48.228;16.398;2022-11-18T07:54:09;5.70;99.90
44855;DHT22;30591;48.228;16.398;2022-11-18T07:56:37;5.70;99.90
44855;DHT22;30591;48.228;16.398;2022-11-18T07:59:06;5.60;99.90
44855;DHT22;30591;48.228;16.398;2022-11-18T08:01:34;5.70;99.90
44855;DHT22;30591;48.228;16.398;2022-11-18T08:04:11;5.70;99.90
44855;DHT22;30591;48.228;16.398;2022-11-18T08:06:39;5.70;99.90
44855;DHT22;30591;48.228;16.398;2022-11-18T08:09:07;5.70;99.90
44855;DHT22;30591;48.228;16.398;2022-11-18T08:11:35;5.70;99.90
44855;DHT22;30591;48.228;16.398;2022-11-18T08:14:05;5.80;99.90
44855;DHT22;30591;48.228;16.398;2022-11-18T08:16:34;5.70;99.90
44855;DHT22;30591;48.228;16.398;2022-11-18T08:19:02;5.80;99.90
44855;DHT22;30591;48.228;16.398;2022-11-18T08:21:30;5.80;99.90
44855;DHT22;30591;48.228;16.398;2022-11-18T08:23:59;5.80;99.90
44855;DHT22;30591;48.228;16.398;2022-11-18T08:26:32;5.90;99.90
44855;DHT22;30591;48.228;16.398;2022-11-18T08:28:59;5.90;99.90
44855;DHT22;30591;48.228;16.398;2022-11-18T08:31:31;5.80;99.90
44855;DHT22;30591;48.228;16.398;2022-11-18T08:34:01;5.90;99.90
44855;DHT22;30591;48.228;16.398;2022-11-18T08:36:30;5.80;99.90
44855;DHT22;30591;48.228;16.398;2022-11-18T08:39:00;5.80;99.90
44855;DHT22;30591;48.228;16.398;2022-11-18T08:41:40;5.90;99.90
44855;DHT22;30591;48.228;16.398;2022-11-18T08:44:12;6.00;99.90
44855;DHT22;30591;48.228;16.398;2022-11-18T08:46:43;6.00;99.90
44855;DHT22;30591;48.228;16.398;2022-11-18T08:49:15;5.90;99.90
44855;DHT22;30591;48.228;16.398;2022-11-18T08:51:44;6.20;99.90
44855;DHT22;30591;48.228;16.398;2022-11-18T08:54:13;6.10;99.90
44855;DHT22;30591;48.228;16.398;2022-11-18T08:56:46;6.30;99.90
44855;DHT22;30591;48.228;16.398;2022-11-18T08:59:17;6.40;99.90
44855;DHT22;30591;48.228;16.398;2022-11-18T09:01:45;6.50;99.90
44855;DHT22;30591;48.228;16.398;2022-11-18T09:04:13;6.40;99.90
44855;DHT22;30591;48.228;16.398;2022-11-18T09:06:40;6.40;99.90
44855;DHT22;30591;48.228;16.398;2022-11-18T09:09:08;6.40;99.90
44855;DHT22;30591;48.228;16.398;2022-11-18T09:11:38;6.50;99.90
44855;DHT22;30591;48.228;16.398;2022-11-18T09:14:09;6.50;99.90
44855;DHT22;30591;48.228;16.398;2022-11-18T09:17:04;6.50;99.90
44855;DHT22;30591;48.228;16.398;2022-11-18T09:19:32;6.50;99.90
44855;DHT22;30591;48.228;16.398;2022-11-18T09:22:13;6.60;99.90
44855;DHT22;30591;48.228;16.398;2022-11-18T09:24:42;6.50;99.90
44855;DHT22;30591;48.228;16.398;2022-11-18T09:27:18;6.60;99.90
44855;DHT22;30591;48.228;16.398;2022-11-18T09:29:45;6.60;99.90
44855;DHT22;30591;48.228;16.398;2022-11-18T09:32:12;6.70;99.90
44855;DHT22;30591;48.228;16.398;2022-11-18T09:34:40;6.60;99.90
44855;DHT22;30591;48.228;16.398;2022-11-18T09:37:09;6.50;99.90
44855;DHT22;30591;48.228;16.398;2022-11-18T09:39:37;6.30;99.90
44855;DHT22;30591;48.228;16.398;2022-11-18T09:47:35;6.50;99.90
44855;DHT22;30591;48.228;16.398;2022-11-18T09:50:10;6.50;99.90
44855;DHT22;30591;48.228;16.398;2022-11-18T09:53:19;6.50;99.90
44855;DHT22;30591;48.228;16.398;2022-11-18T09:55:48;6.50;99.90
44855;DHT22;30591;48.228;16.398;2022-11-18T10:00:57;6.40;99.90
44855;DHT22;30591;48.228;16.398;2022-11-18T10:03:30;6.40;99.90
44855;DHT22;30591;48.228;16.398;2022-11-18T10:06:15;6.30;99.90
44855;DHT22;30591;48.228;16.398;2022-11-18T10:09:09;6.40;99.90
44855;DHT22;30591;48.228;16.398;2022-11-18T10:25:18;6.10;99.90
44855;DHT22;30591;48.228;16.398;2022-11-18T10:27:47;6.10;99.90
44855;DHT22;30591;48.228;16.398;2022-11-18T10:30:18;6.10;99.90
44855;DHT22;30591;48.228;16.398;2022-11-18T10:33:01;6.10;99.90
44855;DHT22;30591;48.228;16.398;2022-11-18T10:35:39;6.10;99.90
44855;DHT22;30591;48.228;16.398;2022-11-18T10:38:19;6.20;99.90
44855;DHT22;30591;48.228;16.398;2022-11-18T10:41:04;6.20;99.90
44855;DHT22;30591;48.228;16.398;2022-11-18T10:43:49;6.20;99.90
44855;DHT22;30591;48.228;16.398;2022-11-18T10:46:23;6.20;99.90
44855;DHT22;30591;48.228;16.398;2022-11-18T10:54:20;6.20;99.90
44855;DHT22;30591;48.228;16.398;2022-11-18T11:02:43;6.20;99.90
44855;DHT22;30591;48.228;16.398;2022-11-18T11:05:20;6.10;99.90
44855;DHT22;30591;48.228;16.398;2022-11-18T11:08:20;6.20;99.90
44855;DHT22;30591;48.228;16.398;2022-11-18T11:11:04;6.20;99.90
44855;DHT22;30591;48.228;16.398;2022-11-18T11:13:37;6.20;99.90
44855;DHT22;30591;48.228;16.398;2022-11-18T11:16:12;6.20;99.90
44855;DHT22;30591;48.228;16.398;2022-11-18T11:18:40;6.20;99.90
44855;DHT22;30591;48.228;16.398;2022-11-18T11:21:15;6.20;99.90
44855;DHT22;30591;48.228;16.398;2022-11-18T11:23:44;6.00;99.90
44855;DHT22;30591;48.228;16.398;2022-11-18T11:36:05;6.00;99.90
44855;DHT22;30591;48.228;16.398;2022-11-18T11:38:54;5.90;99.90
44855;DHT22;30591;48.228;16.398;2022-11-18T11:41:42;5.70;99.90
44855;DHT22;30591;48.228;16.398;2022-11-18T11:50:31;5.70;99.90
44855;DHT22;30591;48.228;16.398;2022-11-18T11:54:32;5.60;99.90
44855;DHT22;30591;48.228;16.398;2022-11-18T12:00:00;5.60;99.90
44855;DHT22;30591;48.228;16.398;2022-11-18T12:02:59;5.60;99.90
44855;DHT22;30591;48.228;16.398;2022-11-18T12:05:37;5.70;99.90
44855;DHT22;30591;48.228;16.398;2022-11-18T12:08:13;5.70;99.90
44855;DHT22;30591;48.228;16.398;2022-11-18T12:14:08;5.70;99.90
44855;DHT22;30591;48.228;16.398;2022-11-18T12:19:14;5.90;99.90
44855;DHT22;30591;48.228;16.398;2022-11-18T12:24:27;5.70;99.90
44855;DHT22;30591;48.228;16.398;2022-11-18T12:27:01;5.60;99.90
44855;DHT22;30591;48.228;16.398;2022-11-18T12:37:58;5.60;99.90
44855;DHT22;30591;48.228;16.398;2022-11-18T12:40:43;5.60;99.90
44855;DHT22;30591;48.228;16.398;2022-11-18T12:51:53;5.50;99.90
44855;DHT22;30591;48.228;16.398;2022-11-18T12:57:03;5.50;99.90
44855;DHT22;30591;48.228;16.398;2022-11-18T12:59:35;5.60;99.90
44855;DHT22;30591;48.228;16.398;2022-11-18T13:02:16;5.60;99.90
44855;DHT22;30591;48.228;16.398;2022-11-18T13:04:44;5.40;99.90
44855;DHT22;30591;48.228;16.398;2022-11-18T13:07:18;5.40;99.90
44855;DHT22;30591;48.228;16.398;2022-11-18T13:10:25;5.40;99.90
44855;DHT22;30591;48.228;16.398;2022-11-18T13:12:54;5.40;99.90
44855;DHT22;30591;48.228;16.398;2022-11-18T13:15:22;5.30;99.90
44855;DHT22;30591;48.228;16.398;2022-11-18T13:18:19;5.30;99.90
44855;DHT22;30591;48.228;16.398;2022-11-18T13:20:56;5.40;99.90
44855;DHT22;30591;48.228;16.398;2022-11-18T13:23:31;5.50;99.90
44855;DHT22;30591;48.228;16.398;2022-11-18T13:26:27;5.30;99.90
44855;DHT22;30591;48.228;16.398;2022-11-18T13:34:48;5.40;99.90
44855;DHT22;30591;48.228;16.398;2022-11-18T13:37:27;5.40;99.90
44855;DHT22;30591;48.228;16.398;2022-11-18T13:39:55;5.40;99.90
44855;DHT22;30591;48.228;16.398;2022-11-18T13:42:27;5.30;99.90
44855;DHT22;30591;48.228;16.398;2022-11-18T13:44:57;5.20;99.90
44855;DHT22;30591;48.228;16.398;2022-11-18T13:55:30;5.20;99.90
44855;DHT22;30591;48.228;16.398;2022-11-18T14:00:56;5.10;99.90
44855;DHT22;30591;48.228;16.398;2022-11-18T14:03:30;5.00;99.90
44855;DHT22;30591;48.228;16.398;2022-11-18T14:05:59;5.10;99.90
44855;DHT22;30591;48.228;16.398;2022-11-18T14:08:32;5.10;99.90
44855;DHT22;30591;48.228;16.398;2022-11-18T14:11:00;5.10;99.90
44855;DHT22;30591;48.228;16.398;2022-11-18T14:13:31;5.10;99.90
44855;DHT22;30591;48.228;16.398;2022-11-18T14:18:46;4.90;99.90
44855;DHT22;30591;48.228;16.398;2022-11-18T14:21:26;4.80;99.90
44855;DHT22;30591;48.228;16.398;2022-11-18T14:23:55;4.60;99.90
44855;DHT22;30591;48.228;16.398;2022-11-18T14:26:31;4.50;99.90
44855;DHT22;30591;48.228;16.398;2022-11-18T14:29:15;4.40;99.90
44855;DHT22;30591;48.228;16.398;2022-11-18T14:32:13;4.40;99.90
44855;DHT22;30591;48.228;16.398;2022-11-18T14:34:41;4.20;99.90
44855;DHT22;30591;48.228;16.398;2022-11-18T14:37:13;4.10;99.90
44855;DHT22;30591;48.228;16.398;2022-11-18T14:39:40;4.00;99.90
44855;DHT22;30591;48.228;16.398;2022-11-18T14:42:11;4.00;99.90
44855;DHT22;30591;48.228;16.398;2022-11-18T14:44:39;3.80;99.90
44855;DHT22;30591;48.228;16.398;2022-11-18T14:47:17;3.80;99.90
44855;DHT22;30591;48.228;16.398;2022-11-18T14:49:46;3.70;99.90
44855;DHT22;30591;48.228;16.398;2022-11-18T14:52:14;3.60;99.90
44855;DHT22;30591;48.228;16.398;2022-11-18T14:54:41;3.60;99.90
44855;DHT22;30591;48.228;16.398;2022-11-18T14:57:15;3.60;99.90
44855;DHT22;30591;48.228;16.398;2022-11-18T14:59:43;3.80;99.90
44855;DHT22;30591;48.228;16.398;2022-11-18T15:02:15;3.80;99.90
44855;DHT22;30591;48.228;16.398;2022-11-18T15:04:43;3.70;99.90
44855;DHT22;30591;48.228;16.398;2022-11-18T15:07:12;3.80;99.90
44855;DHT22;30591;48.228;16.398;2022-11-18T15:09:55;3.70;99.90
44855;DHT22;30591;48.228;16.398;2022-11-18T15:12:22;3.70;99.90
44855;DHT22;30591;48.228;16.398;2022-11-18T15:14:49;3.70;99.90
44855;DHT22;30591;48.228;16.398;2022-11-18T15:17:18;3.60;99.90
44855;DHT22;30591;48.228;16.398;2022-11-18T15:19:46;3.50;99.90
44855;DHT22;30591;48.228;16.398;2022-11-18T15:22:13;3.40;99.90
44855;DHT22;30591;48.228;16.398;2022-11-18T15:24:41;3.50;99.90
44855;DHT22;30591;48.228;16.398;2022-11-18T15:27:08;3.50;99.90
44855;DHT22;30591;48.228;16.398;2022-11-18T15:29:36;3.50;99.90
44855;DHT22;30591;48.228;16.398;2022-11-18T15:32:03;3.50;99.90
44855;DHT22;30591;48.228;16.398;2022-11-18T15:34:31;3.50;99.90
44855;DHT22;30591;48.228;16.398;2022-11-18T15:37:01;3.40;99.90
44855;DHT22;30591;48.228;16.398;2022-11-18T15:39:29;3.40;99.90
44855;DHT22;30591;48.228;16.398;2022-11-18T15:41:56;3.40;99.90
44855;DHT22;30591;48.228;16.398;2022-11-18T15:44:24;3.40;99.90
44855;DHT22;30591;48.228;16.398;2022-11-18T15:46:52;3.20;99.90
44855;DHT22;30591;48.228;16.398;2022-11-18T15:49:19;3.30;99.90
44855;DHT22;30591;48.228;16.398;2022-11-18T15:51:47;3.20;99.90
44855;DHT22;30591;48.228;16.398;2022-11-18T15:54:14;3.30;99.90
44855;DHT22;30591;48.228;16.398;2022-11-18T15:56:42;3.20;99.90
44855;DHT22;30591;48.228;16.398;2022-11-18T15:59:11;3.30;99.90
44855;DHT22;30591;48.228;16.398;2022-11-18T16:01:41;3.30;99.90
44855;DHT22;30591;48.228;16.398;2022-11-18T16:04:11;3.40;99.90
44855;DHT22;30591;48.228;16.398;2022-11-18T16:06:39;3.30;99.90
44855;DHT22;30591;48.228;16.398;2022-11-18T16:09:10;3.20;99.90
44855;DHT22;30591;48.228;16.398;2022-11-18T16:11:38;3.10;99.90
44855;DHT22;30591;48.228;16.398;2022-11-18T16:14:24;3.20;99.90
44855;DHT22;30591;48.228;16.398;2022-11-18T16:16:53;3.30;99.90
44855;DHT22;30591;48.228;16.398;2022-11-18T16:19:24;3.10;99.90
44855;DHT22;30591;48.228;16.398;2022-11-18T16:21:54;3.10;99.90
44855;DHT22;30591;48.228;16.398;2022-11-18T16:24:26;3.10;99.90
44855;DHT22;30591;48.228;16.398;2022-11-18T16:26:54;3.10;99.90
44855;DHT22;30591;48.228;16.398;2022-11-18T16:29:22;2.90;99.90
44855;DHT22;30591;48.228;16.398;2022-11-18T16:31:51;3.00;99.90
44855;DHT22;30591;48.228;16.398;2022-11-18T16:34:23;3.00;99.90
44855;DHT22;30591;48.228;16.398;2022-11-18T16:36:53;2.90;99.90
44855;DHT22;30591;48.228;16.398;2022-11-18T16:39:23;2.90;99.90
44855;DHT22;30591;48.228;16.398;2022-11-18T16:41:54;2.90;99.90
44855;DHT22;30591;48.228;16.398;2022-11-18T16:44:28;2.80;99.90
44855;DHT22;30591;48.228;16.398;2022-11-18T16:46:56;2.70;99.90
44855;DHT22;30591;48.228;16.398;2022-11-18T16:49:27;2.60;99.90
44855;DHT22;30591;48.228;16.398;2022-11-18T16:51:55;2.70;99.90
44855;DHT22;30591;48.228;16.398;2022-11-18T16:54:25;2.60;99.90
44855;DHT22;30591;48.228;16.398;2022-11-18T16:56:54;2.60;99.90
44855;DHT22;30591;48.228;16.398;2022-11-18T16:59:28;2.60;99.90
44855;DHT22;30591;48.228;16.398;2022-11-18T17:01:58;2.60;99.90
44855;DHT22;30591;48.228;16.398;2022-11-18T17:04:28;2.70;99.90
44855;DHT22;30591;48.228;16.398;2022-11-18T17:06:57;2.70;99.90
44855;DHT22;30591;48.228;16.398;2022-11-18T17:09:26;2.80;99.90
44855;DHT22;30591;48.228;16.398;2022-11-18T17:11:55;2.60;99.90
44855;DHT22;30591;48.228;16.398;2022-11-18T17:14:25;2.70;99.90
44855;DHT22;30591;48.228;16.398;2022-11-18T17:16:53;2.70;99.90
44855;DHT22;30591;48.228;16.398;2022-11-18T17:19:22;2.60;99.90
44855;DHT22;30591;48.228;16.398;2022-11-18T17:21:50;2.60;99.90
44855;DHT22;30591;48.228;16.398;2022-11-18T17:24:20;2.60;99.90
44855;DHT22;30591;48.228;16.398;2022-11-18T17:26:50;2.50;99.90
44855;DHT22;30591;48.228;16.398;2022-11-18T17:29:18;2.60;99.90
44855;DHT22;30591;48.228;16.398;2022-11-18T17:31:46;2.60;99.90
44855;DHT22;30591;48.228;16.398;2022-11-18T17:34:14;2.50;99.90
44855;DHT22;30591;48.228;16.398;2022-11-18T17:36:43;2.60;99.90
44855;DHT22;30591;48.228;16.398;2022-11-18T17:39:11;2.70;99.90
44855;DHT22;30591;48.228;16.398;2022-11-18T17:41:39;2.50;99.90
44855;DHT22;30591;48.228;16.398;2022-11-18T17:44:26;2.60;99.90
44855;DHT22;30591;48.228;16.398;2022-11-18T17:46:55;2.60;99.90
44855;DHT22;30591;48.228;16.398;2022-11-18T17:49:22;2.50;99.90
44855;DHT22;30591;48.228;16.398;2022-11-18T17:51:51;2.50;99.90
44855;DHT22;30591;48.228;16.398;2022-11-18T17:54:19;2.40;99.90
44855;DHT22;30591;48.228;16.398;2022-11-18T17:56:48;2.30;99.90
44855;DHT22;30591;48.228;16.398;2022-11-18T17:59:19;2.40;99.90
44855;DHT22;30591;48.228;16.398;2022-11-18T18:01:48;2.50;99.90
44855;DHT22;30591;48.228;16.398;2022-11-18T18:04:24;2.40;99.90
44855;DHT22;30591;48.228;16.398;2022-11-18T18:06:52;2.40;99.90